sensor_id;sensor_type;location;lat;lon;timestamp;pressure;altitude;pressure_sealevel;temperature;humidity
63819;BME280;49970;54.976;73.248;2022-07-10T00:01:48;100210.13;;;20.54;78.74
63819;BME280;49970;54.976;73.248;2022-07-10T00:04:15;100215.47;;;20.62;78.82
63819;BME280;49970;54.976;73.248;2022-07-10T00:06:41;100213.28;;;20.66;78.34
63819;BME280;49970;54.976;73.248;2022-07-10T00:09:18;100219.78;;;20.71;78.40
63819;BME280;49970;54.976;73.248;2022-07-10T00:11:44;100221.28;;;20.74;78.09
63819;BME280;49970;54.976;73.248;2022-07-10T00:14:17;100222.44;;;20.79;78.73
63819;BME280;49970;54.976;73.248;2022-07-10T00:16:43;100219.38;;;20.82;78.29
63819;BME280;49970;54.976;73.248;2022-07-10T00:19:09;100225.25;;;20.86;78.05
63819;BME280;49970;54.976;73.248;2022-07-10T00:21:35;100232.81;;;20.91;78.04
63819;BME280;49970;54.976;73.248;2022-07-10T00:24:02;100221.50;;;20.95;78.37
63819;BME280;49970;54.976;73.248;2022-07-10T00:26:29;100233.22;;;21.02;78.40
63819;BME280;49970;54.976;73.248;2022-07-10T00:28:55;100233.88;;;21.04;77.86
63819;BME280;49970;54.976;73.248;2022-07-10T00:31:21;100243.97;;;21.02;77.38
63819;BME280;49970;54.976;73.248;2022-07-10T00:33:48;100233.03;;;21.04;78.03
63819;BME280;49970;54.976;73.248;2022-07-10T00:36:16;100232.22;;;21.03;77.59
63819;BME280;49970;54.976;73.248;2022-07-10T00:38:42;100236.03;;;21.09;77.94
63819;BME280;49970;54.976;73.248;2022-07-10T00:41:09;100239.03;;;21.14;77.75
63819;BME280;49970;54.976;73.248;2022-07-10T00:44:04;100232.94;;;21.20;78.16
63819;BME280;49970;54.976;73.248;2022-07-10T00:46:31;100233.03;;;21.27;77.41
63819;BME280;49970;54.976;73.248;2022-07-10T00:48:58;100222.75;;;21.30;76.74
63819;BME280;49970;54.976;73.248;2022-07-10T00:51:26;100228.63;;;21.34;76.57
63819;BME280;49970;54.976;73.248;2022-07-10T00:53:53;100227.06;;;21.39;76.28
63819;BME280;49970;54.976;73.248;2022-07-10T00:56:23;100228.03;;;21.47;75.26
63819;BME280;49970;54.976;73.248;2022-07-10T00:58:51;100225.63;;;21.52;75.10
63819;BME280;49970;54.976;73.248;2022-07-10T01:01:19;100223.19;;;21.57;75.09
63819;BME280;49970;54.976;73.248;2022-07-10T01:03:46;100231.13;;;21.58;74.05
63819;BME280;49970;54.976;73.248;2022-07-10T01:06:18;100233.63;;;21.60;73.73
63819;BME280;49970;54.976;73.248;2022-07-10T01:08:48;100235.97;;;21.63;73.93
63819;BME280;49970;54.976;73.248;2022-07-10T01:11:15;100226.38;;;21.60;73.88
63819;BME280;49970;54.976;73.248;2022-07-10T01:13:52;100224.16;;;21.64;73.77
63819;BME280;49970;54.976;73.248;2022-07-10T01:16:24;100226.31;;;21.69;73.56
63819;BME280;49970;54.976;73.248;2022-07-10T01:18:51;100224.75;;;21.74;73.82
63819;BME280;49970;54.976;73.248;2022-07-10T01:21:31;100224.19;;;21.79;73.51
63819;BME280;49970;54.976;73.248;2022-07-10T01:24:09;100227.16;;;21.84;73.51
63819;BME280;49970;54.976;73.248;2022-07-10T01:26:36;100233.88;;;21.88;73.62
63819;BME280;49970;54.976;73.248;2022-07-10T01:29:05;100237.69;;;21.94;73.63
63819;BME280;49970;54.976;73.248;2022-07-10T01:31:32;100227.84;;;22.01;74.12
63819;BME280;49970;54.976;73.248;2022-07-10T01:34:00;100232.66;;;22.05;73.47
63819;BME280;49970;54.976;73.248;2022-07-10T01:36:30;100230.56;;;22.16;74.02
63819;BME280;49970;54.976;73.248;2022-07-10T01:38:57;100235.69;;;22.25;73.27
63819;BME280;49970;54.976;73.248;2022-07-10T01:41:43;100229.72;;;22.30;73.27
63819;BME280;49970;54.976;73.248;2022-07-10T01:45:35;100230.25;;;22.40;71.93
63819;BME280;49970;54.976;73.248;2022-07-10T01:53:24;100232.59;;;22.58;71.61
63819;BME280;49970;54.976;73.248;2022-07-10T01:57:15;100240.38;;;22.68;71.82
63819;BME280;49970;54.976;73.248;2022-07-10T02:02:00;100240.59;;;22.87;71.17
63819;BME280;49970;54.976;73.248;2022-07-10T02:05:50;100230.94;;;23.15;70.84
63819;BME280;49970;54.976;73.248;2022-07-10T02:09:42;100233.50;;;23.44;69.94
63819;BME280;49970;54.976;73.248;2022-07-10T02:12:55;100241.06;;;23.77;69.26
63819;BME280;49970;54.976;73.248;2022-07-10T02:15:27;100246.09;;;24.08;68.66
63819;BME280;49970;54.976;73.248;2022-07-10T02:18:00;100251.13;;;24.46;67.27
63819;BME280;49970;54.976;73.248;2022-07-10T02:20:34;100248.16;;;24.95;66.01
63819;BME280;49970;54.976;73.248;2022-07-10T02:23:14;100252.03;;;25.41;64.86
63819;BME280;49970;54.976;73.248;2022-07-10T02:25:44;100252.06;;;25.80;63.56
63819;BME280;49970;54.976;73.248;2022-07-10T02:28:14;100258.69;;;26.11;62.28
63819;BME280;49970;54.976;73.248;2022-07-10T02:30:49;100254.69;;;26.47;62.10
63819;BME280;49970;54.976;73.248;2022-07-10T02:33:18;100257.44;;;26.78;61.32
63819;BME280;49970;54.976;73.248;2022-07-10T02:35:48;100257.94;;;27.14;60.51
63819;BME280;49970;54.976;73.248;2022-07-10T02:38:18;100261.28;;;27.41;59.62
63819;BME280;49970;54.976;73.248;2022-07-10T02:40:49;100259.41;;;27.66;59.28
63819;BME280;49970;54.976;73.248;2022-07-10T02:43:18;100266.00;;;27.84;58.69
63819;BME280;49970;54.976;73.248;2022-07-10T02:45:50;100257.81;;;27.84;57.90
63819;BME280;49970;54.976;73.248;2022-07-10T02:48:21;100260.94;;;27.87;58.84
63819;BME280;49970;54.976;73.248;2022-07-10T02:50:50;100266.81;;;27.59;58.48
63819;BME280;49970;54.976;73.248;2022-07-10T02:53:20;100268.63;;;27.40;59.28
63819;BME280;49970;54.976;73.248;2022-07-10T02:55:48;100267.41;;;27.36;59.11
63819;BME280;49970;54.976;73.248;2022-07-10T02:58:20;100279.09;;;27.37;59.67
63819;BME280;49970;54.976;73.248;2022-07-10T03:00:59;100273.16;;;27.21;59.85
63819;BME280;49970;54.976;73.248;2022-07-10T03:03:30;100275.25;;;27.19;59.00
63819;BME280;49970;54.976;73.248;2022-07-10T03:06:02;100273.50;;;27.31;59.76
63819;BME280;49970;54.976;73.248;2022-07-10T03:08:34;100275.97;;;27.40;58.86
63819;BME280;49970;54.976;73.248;2022-07-10T03:11:06;100273.78;;;27.48;58.68
63819;BME280;49970;54.976;73.248;2022-07-10T03:13:36;100267.09;;;27.51;58.14
63819;BME280;49970;54.976;73.248;2022-07-10T03:16:06;100270.69;;;27.45;58.61
63819;BME280;49970;54.976;73.248;2022-07-10T03:18:56;100268.22;;;27.37;58.80
63819;BME280;49970;54.976;73.248;2022-07-10T03:22:29;100271.38;;;27.34;59.42
63819;BME280;49970;54.976;73.248;2022-07-10T03:25:16;100262.88;;;27.23;59.41
63819;BME280;49970;54.976;73.248;2022-07-10T03:28:02;100266.19;;;27.25;58.84
63819;BME280;49970;54.976;73.248;2022-07-10T03:31:19;100265.50;;;27.37;59.57
63819;BME280;49970;54.976;73.248;2022-07-10T03:33:45;100270.84;;;27.50;58.92
63819;BME280;49970;54.976;73.248;2022-07-10T03:36:11;100266.09;;;27.70;58.62
63819;BME280;49970;54.976;73.248;2022-07-10T03:38:39;100266.50;;;27.74;58.34
63819;BME280;49970;54.976;73.248;2022-07-10T03:41:21;100273.66;;;27.68;58.92
63819;BME280;49970;54.976;73.248;2022-07-10T03:43:53;100269.25;;;27.67;58.61
63819;BME280;49970;54.976;73.248;2022-07-10T03:46:19;100275.50;;;27.74;57.94
63819;BME280;49970;54.976;73.248;2022-07-10T03:48:46;100269.50;;;27.91;59.37
63819;BME280;49970;54.976;73.248;2022-07-10T03:51:12;100268.66;;;27.90;57.73
63819;BME280;49970;54.976;73.248;2022-07-10T03:53:38;100271.22;;;27.85;57.46
63819;BME280;49970;54.976;73.248;2022-07-10T03:56:11;100261.31;;;27.91;56.99
63819;BME280;49970;54.976;73.248;2022-07-10T03:58:58;100269.59;;;28.02;56.54
63819;BME280;49970;54.976;73.248;2022-07-10T04:01:29;100273.84;;;28.17;55.79
63819;BME280;49970;54.976;73.248;2022-07-10T04:03:55;100271.22;;;28.28;56.68
63819;BME280;49970;54.976;73.248;2022-07-10T04:06:32;100267.59;;;28.35;56.39
63819;BME280;49970;54.976;73.248;2022-07-10T04:08:58;100267.53;;;28.41;56.53
63819;BME280;49970;54.976;73.248;2022-07-10T04:11:29;100270.50;;;28.40;56.12
63819;BME280;49970;54.976;73.248;2022-07-10T04:13:55;100267.78;;;28.40;56.21
63819;BME280;49970;54.976;73.248;2022-07-10T04:16:27;100270.03;;;28.43;56.10
63819;BME280;49970;54.976;73.248;2022-07-10T04:18:53;100274.44;;;28.44;54.79
63819;BME280;49970;54.976;73.248;2022-07-10T04:21:19;100273.59;;;28.43;54.75
63819;BME280;49970;54.976;73.248;2022-07-10T04:23:46;100285.22;;;28.50;54.10
63819;BME280;49970;54.976;73.248;2022-07-10T04:26:32;100270.41;;;28.65;53.49
63819;BME280;49970;54.976;73.248;2022-07-10T04:29:59;100277.28;;;28.86;53.29
63819;BME280;49970;54.976;73.248;2022-07-10T04:32:26;100280.97;;;28.91;53.28
63819;BME280;49970;54.976;73.248;2022-07-10T04:34:56;100269.59;;;28.94;53.28
63819;BME280;49970;54.976;73.248;2022-07-10T04:37:23;100286.38;;;28.98;52.11
63819;BME280;49970;54.976;73.248;2022-07-10T04:39:49;100285.53;;;28.97;52.35
63819;BME280;49970;54.976;73.248;2022-07-10T04:42:15;100283.41;;;28.99;51.63
63819;BME280;49970;54.976;73.248;2022-07-10T04:44:42;100281.44;;;29.07;52.16
63819;BME280;49970;54.976;73.248;2022-07-10T04:47:08;100278.75;;;29.18;53.80
63819;BME280;49970;54.976;73.248;2022-07-10T04:49:34;100278.91;;;29.35;54.33
63819;BME280;49970;54.976;73.248;2022-07-10T04:52:01;100272.75;;;29.40;52.34
63819;BME280;49970;54.976;73.248;2022-07-10T04:54:27;100281.28;;;29.32;51.75
63819;BME280;49970;54.976;73.248;2022-07-10T04:56:53;100273.53;;;29.28;51.86
63819;BME280;49970;54.976;73.248;2022-07-10T04:59:20;100273.16;;;29.25;50.23
63819;BME280;49970;54.976;73.248;2022-07-10T05:01:46;100271.28;;;29.25;50.34
63819;BME280;49970;54.976;73.248;2022-07-10T05:04:12;100274.16;;;29.31;50.62
63819;BME280;49970;54.976;73.248;2022-07-10T05:06:40;100273.09;;;29.32;50.61
63819;BME280;49970;54.976;73.248;2022-07-10T05:09:06;100272.00;;;29.33;50.02
63819;BME280;49970;54.976;73.248;2022-07-10T05:11:32;100265.72;;;29.32;49.17
63819;BME280;49970;54.976;73.248;2022-07-10T05:13:59;100263.47;;;29.29;50.42
63819;BME280;49970;54.976;73.248;2022-07-10T05:16:25;100275.34;;;29.35;50.24
63819;BME280;49970;54.976;73.248;2022-07-10T05:18:51;100265.63;;;29.39;47.81
63819;BME280;49970;54.976;73.248;2022-07-10T05:21:22;100265.41;;;29.40;49.08
63819;BME280;49970;54.976;73.248;2022-07-10T05:23:51;100271.72;;;29.52;47.23
63819;BME280;49970;54.976;73.248;2022-07-10T05:26:17;100263.75;;;29.51;46.74
63819;BME280;49970;54.976;73.248;2022-07-10T05:28:43;100262.66;;;29.40;47.46
63819;BME280;49970;54.976;73.248;2022-07-10T05:31:10;100265.50;;;29.45;47.76
63819;BME280;49970;54.976;73.248;2022-07-10T05:33:36;100267.06;;;29.41;46.76
63819;BME280;49970;54.976;73.248;2022-07-10T05:36:09;100262.19;;;29.55;44.92
63819;BME280;49970;54.976;73.248;2022-07-10T05:38:35;100268.44;;;29.62;45.35
63819;BME280;49970;54.976;73.248;2022-07-10T05:41:07;100271.06;;;29.69;44.91
63819;BME280;49970;54.976;73.248;2022-07-10T05:43:38;100269.03;;;29.76;44.15
63819;BME280;49970;54.976;73.248;2022-07-10T05:46:05;100268.09;;;29.82;44.75
63819;BME280;49970;54.976;73.248;2022-07-10T05:48:31;100269.03;;;29.88;45.35
63819;BME280;49970;54.976;73.248;2022-07-10T05:51:02;100267.97;;;29.89;44.69
63819;BME280;49970;54.976;73.248;2022-07-10T05:53:29;100265.59;;;29.92;43.66
63819;BME280;49970;54.976;73.248;2022-07-10T05:56:05;100274.28;;;29.89;44.91
63819;BME280;49970;54.976;73.248;2022-07-10T05:58:31;100269.75;;;29.95;44.83
63819;BME280;49970;54.976;73.248;2022-07-10T06:00:57;100268.22;;;29.99;45.08
63819;BME280;49970;54.976;73.248;2022-07-10T06:03:23;100265.00;;;30.02;45.99
63819;BME280;49970;54.976;73.248;2022-07-10T06:05:50;100271.31;;;30.14;45.50
63819;BME280;49970;54.976;73.248;2022-07-10T06:08:16;100263.25;;;30.19;44.04
63819;BME280;49970;54.976;73.248;2022-07-10T06:10:52;100257.66;;;30.14;44.12
63819;BME280;49970;54.976;73.248;2022-07-10T06:13:19;100263.13;;;30.14;44.23
63819;BME280;49970;54.976;73.248;2022-07-10T06:15:45;100274.75;;;30.21;44.21
63819;BME280;49970;54.976;73.248;2022-07-10T06:18:12;100261.91;;;30.22;44.42
63819;BME280;49970;54.976;73.248;2022-07-10T06:20:38;100266.44;;;30.16;44.42
63819;BME280;49970;54.976;73.248;2022-07-10T06:23:04;100264.16;;;30.13;44.76
63819;BME280;49970;54.976;73.248;2022-07-10T06:25:30;100258.13;;;30.11;45.40
63819;BME280;49970;54.976;73.248;2022-07-10T06:28:04;100264.41;;;30.12;44.89
63819;BME280;49970;54.976;73.248;2022-07-10T06:30:31;100257.50;;;30.09;44.64
63819;BME280;49970;54.976;73.248;2022-07-10T06:32:57;100257.50;;;30.09;45.51
63819;BME280;49970;54.976;73.248;2022-07-10T06:35:24;100253.13;;;30.08;44.95
63819;BME280;49970;54.976;73.248;2022-07-10T06:37:50;100256.47;;;30.10;44.61
63819;BME280;49970;54.976;73.248;2022-07-10T06:40:19;100255.97;;;30.13;45.45
63819;BME280;49970;54.976;73.248;2022-07-10T06:42:56;100256.13;;;30.18;46.06
63819;BME280;49970;54.976;73.248;2022-07-10T06:45:23;100238.66;;;30.19;45.14
63819;BME280;49970;54.976;73.248;2022-07-10T06:47:50;100248.41;;;30.27;45.80
63819;BME280;49970;54.976;73.248;2022-07-10T06:50:23;100241.13;;;30.33;45.76
63819;BME280;49970;54.976;73.248;2022-07-10T06:52:50;100234.69;;;30.39;45.10
63819;BME280;49970;54.976;73.248;2022-07-10T06:55:23;100232.19;;;30.49;46.08
63819;BME280;49970;54.976;73.248;2022-07-10T06:57:50;100245.59;;;30.50;44.51
63819;BME280;49970;54.976;73.248;2022-07-10T07:00:21;100231.94;;;30.39;44.58
63819;BME280;49970;54.976;73.248;2022-07-10T07:02:48;100251.13;;;30.27;44.76
63819;BME280;49970;54.976;73.248;2022-07-10T07:05:14;100232.38;;;30.19;45.46
63819;BME280;49970;54.976;73.248;2022-07-10T07:07:41;100234.84;;;30.20;45.24
63819;BME280;49970;54.976;73.248;2022-07-10T07:10:12;100235.56;;;30.27;46.16
63819;BME280;49970;54.976;73.248;2022-07-10T07:12:40;100243.75;;;30.39;45.38
63819;BME280;49970;54.976;73.248;2022-07-10T07:15:16;100237.41;;;30.39;44.73
63819;BME280;49970;54.976;73.248;2022-07-10T07:17:45;100239.22;;;30.33;45.08
63819;BME280;49970;54.976;73.248;2022-07-10T07:20:34;100239.34;;;30.26;45.35
63819;BME280;49970;54.976;73.248;2022-07-10T07:23:24;100235.78;;;30.26;45.35
63819;BME280;49970;54.976;73.248;2022-07-10T07:25:53;100231.16;;;30.26;46.07
63819;BME280;49970;54.976;73.248;2022-07-10T07:28:19;100236.84;;;30.25;44.85
63819;BME280;49970;54.976;73.248;2022-07-10T07:30:47;100239.75;;;30.18;45.27
63819;BME280;49970;54.976;73.248;2022-07-10T07:33:13;100228.47;;;30.15;45.60
63819;BME280;49970;54.976;73.248;2022-07-10T07:35:49;100225.81;;;30.20;46.00
63819;BME280;49970;54.976;73.248;2022-07-10T07:38:21;100224.75;;;30.21;45.12
63819;BME280;49970;54.976;73.248;2022-07-10T07:40:47;100230.69;;;30.18;44.85
63819;BME280;49970;54.976;73.248;2022-07-10T07:43:13;100223.69;;;30.10;45.02
63819;BME280;49970;54.976;73.248;2022-07-10T07:45:40;100216.78;;;30.08;45.43
63819;BME280;49970;54.976;73.248;2022-07-10T07:48:15;100226.63;;;29.97;44.97
63819;BME280;49970;54.976;73.248;2022-07-10T07:50:42;100229.38;;;29.97;46.10
63819;BME280;49970;54.976;73.248;2022-07-10T07:53:09;100221.78;;;29.99;45.51
63819;BME280;49970;54.976;73.248;2022-07-10T07:55:36;100222.97;;;30.03;45.34
63819;BME280;49970;54.976;73.248;2022-07-10T07:58:03;100225.94;;;30.01;46.04
63819;BME280;49970;54.976;73.248;2022-07-10T08:00:49;100236.97;;;29.95;46.25
63819;BME280;49970;54.976;73.248;2022-07-10T08:03:38;100233.53;;;29.99;46.63
63819;BME280;49970;54.976;73.248;2022-07-10T08:06:04;100236.03;;;30.01;46.70
63819;BME280;49970;54.976;73.248;2022-07-10T08:08:30;100230.09;;;30.04;46.03
63819;BME280;49970;54.976;73.248;2022-07-10T08:10:56;100225.69;;;30.03;46.45
63819;BME280;49970;54.976;73.248;2022-07-10T08:13:23;100224.72;;;30.09;46.16
63819;BME280;49970;54.976;73.248;2022-07-10T08:15:49;100226.09;;;30.18;45.80
63819;BME280;49970;54.976;73.248;2022-07-10T08:18:15;100218.22;;;30.22;45.48
63819;BME280;49970;54.976;73.248;2022-07-10T08:20:42;100214.19;;;30.24;43.89
63819;BME280;49970;54.976;73.248;2022-07-10T08:23:08;100218.72;;;30.19;44.49
63819;BME280;49970;54.976;73.248;2022-07-10T08:25:54;100221.91;;;30.16;45.13
63819;BME280;49970;54.976;73.248;2022-07-10T08:29:44;100213.22;;;30.07;45.17
63819;BME280;49970;54.976;73.248;2022-07-10T08:32:56;100220.50;;;30.01;45.33
63819;BME280;49970;54.976;73.248;2022-07-10T08:35:23;100218.91;;;30.06;45.12
63819;BME280;49970;54.976;73.248;2022-07-10T08:37:50;100215.13;;;30.07;44.13
63819;BME280;49970;54.976;73.248;2022-07-10T08:40:16;100221.88;;;30.04;44.15
63819;BME280;49970;54.976;73.248;2022-07-10T08:43:05;100208.59;;;29.96;43.72
63819;BME280;49970;54.976;73.248;2022-07-10T08:50:24;100208.50;;;29.91;44.72
63819;BME280;49970;54.976;73.248;2022-07-10T08:53:09;100210.75;;;29.94;43.96
63819;BME280;49970;54.976;73.248;2022-07-10T08:55:36;100209.56;;;29.90;44.50
63819;BME280;49970;54.976;73.248;2022-07-10T08:58:03;100213.94;;;29.91;43.93
63819;BME280;49970;54.976;73.248;2022-07-10T09:00:33;100206.84;;;29.90;44.45
63819;BME280;49970;54.976;73.248;2022-07-10T09:03:19;100206.84;;;29.90;43.87
63819;BME280;49970;54.976;73.248;2022-07-10T09:06:50;100207.31;;;29.87;43.76
63819;BME280;49970;54.976;73.248;2022-07-10T09:10:24;100198.28;;;29.86;44.27
63819;BME280;49970;54.976;73.248;2022-07-10T09:12:58;100207.31;;;29.87;43.71
63819;BME280;49970;54.976;73.248;2022-07-10T09:15:29;100194.22;;;29.89;44.20
63819;BME280;49970;54.976;73.248;2022-07-10T09:18:04;100201.13;;;29.91;44.20
63819;BME280;49970;54.976;73.248;2022-07-10T09:20:53;100196.97;;;29.89;45.37
63819;BME280;49970;54.976;73.248;2022-07-10T09:23:23;100198.66;;;29.90;44.80
63819;BME280;49970;54.976;73.248;2022-07-10T09:25:53;100191.38;;;29.84;45.02
63819;BME280;49970;54.976;73.248;2022-07-10T09:28:20;100207.78;;;29.84;45.44
63819;BME280;49970;54.976;73.248;2022-07-10T09:30:54;100198.03;;;29.88;45.04
63819;BME280;49970;54.976;73.248;2022-07-10T09:36:12;100205.03;;;29.84;44.93
63819;BME280;49970;54.976;73.248;2022-07-10T09:41:23;100188.19;;;29.75;45.05
63819;BME280;49970;54.976;73.248;2022-07-10T09:43:59;100188.19;;;29.75;45.72
63819;BME280;49970;54.976;73.248;2022-07-10T09:46:31;100184.38;;;29.76;45.79
63819;BME280;49970;54.976;73.248;2022-07-10T09:49:11;100196.16;;;29.76;45.48
63819;BME280;49970;54.976;73.248;2022-07-10T09:51:39;100190.56;;;29.71;45.55
63819;BME280;49970;54.976;73.248;2022-07-10T09:54:07;100192.34;;;29.66;45.76
63819;BME280;49970;54.976;73.248;2022-07-10T09:56:40;100185.25;;;29.65;45.02
63819;BME280;49970;54.976;73.248;2022-07-10T09:59:15;100177.28;;;29.63;46.01
63819;BME280;49970;54.976;73.248;2022-07-10T10:01:52;100187.00;;;29.59;45.94
63819;BME280;49970;54.976;73.248;2022-07-10T10:04:20;100181.31;;;29.61;46.12
63819;BME280;49970;54.976;73.248;2022-07-10T10:06:52;100183.91;;;29.56;45.81
63819;BME280;49970;54.976;73.248;2022-07-10T10:09:24;100179.31;;;29.56;46.92
63819;BME280;49970;54.976;73.248;2022-07-10T10:11:56;100174.03;;;29.54;46.97
63819;BME280;49970;54.976;73.248;2022-07-10T10:14:25;100172.78;;;29.57;46.93
63819;BME280;49970;54.976;73.248;2022-07-10T10:17:04;100168.56;;;29.54;46.45
63819;BME280;49970;54.976;73.248;2022-07-10T10:19:31;100163.00;;;29.49;46.91
63819;BME280;49970;54.976;73.248;2022-07-10T10:22:18;100175.72;;;29.67;46.76
63819;BME280;49970;54.976;73.248;2022-07-10T10:24:50;100166.97;;;29.65;46.79
63819;BME280;49970;54.976;73.248;2022-07-10T10:27:18;100179.78;;;29.76;46.35
63819;BME280;49970;54.976;73.248;2022-07-10T10:29:48;100175.38;;;29.75;46.40
63819;BME280;49970;54.976;73.248;2022-07-10T10:32:15;100172.63;;;29.75;46.28
63819;BME280;49970;54.976;73.248;2022-07-10T10:34:43;100165.63;;;29.68;45.89
63819;BME280;49970;54.976;73.248;2022-07-10T10:37:33;100170.78;;;29.64;46.05
63819;BME280;49970;54.976;73.248;2022-07-10T10:40:00;100182.63;;;29.58;46.25
63819;BME280;49970;54.976;73.248;2022-07-10T10:42:41;100178.44;;;29.56;46.69
63819;BME280;49970;54.976;73.248;2022-07-10T10:48:07;100169.91;;;29.52;46.35
63819;BME280;49970;54.976;73.248;2022-07-10T10:50:51;100175.34;;;29.52;45.70
63819;BME280;49970;54.976;73.248;2022-07-10T10:58:45;100173.13;;;29.61;46.52
63819;BME280;49970;54.976;73.248;2022-07-10T11:06:44;100168.88;;;29.65;46.35
63819;BME280;49970;54.976;73.248;2022-07-10T11:09:22;100157.13;;;29.64;46.47
63819;BME280;49970;54.976;73.248;2022-07-10T11:12:04;100166.03;;;29.60;46.66
63819;BME280;49970;54.976;73.248;2022-07-10T11:14:35;100167.06;;;29.59;46.09
63819;BME280;49970;54.976;73.248;2022-07-10T11:17:03;100168.75;;;29.60;45.97
63819;BME280;49970;54.976;73.248;2022-07-10T11:19:31;100166.03;;;29.60;46.35
63819;BME280;49970;54.976;73.248;2022-07-10T11:24:55;100163.13;;;29.54;45.97
63819;BME280;49970;54.976;73.248;2022-07-10T11:27:36;100162.94;;;29.56;45.53
63819;BME280;49970;54.976;73.248;2022-07-10T11:30:08;100165.63;;;29.44;46.52
63819;BME280;49970;54.976;73.248;2022-07-10T11:32:35;100161.44;;;29.42;45.94
63819;BME280;49970;54.976;73.248;2022-07-10T11:35:06;100161.56;;;29.47;46.23
63819;BME280;49970;54.976;73.248;2022-07-10T11:37:48;100166.44;;;29.45;45.32
63819;BME280;49970;54.976;73.248;2022-07-10T11:41:20;100157.53;;;29.38;45.35
63819;BME280;49970;54.976;73.248;2022-07-10T11:43:54;100168.81;;;29.41;45.64
63819;BME280;49970;54.976;73.248;2022-07-10T11:46:22;100154.94;;;29.43;45.99
63819;BME280;49970;54.976;73.248;2022-07-10T11:49:03;100160.38;;;29.43;46.13
63819;BME280;49970;54.976;73.248;2022-07-10T11:51:31;100164.78;;;29.44;45.95
63819;BME280;49970;54.976;73.248;2022-07-10T11:54:00;100161.00;;;29.45;46.19
63819;BME280;49970;54.976;73.248;2022-07-10T11:56:29;100162.91;;;29.44;46.48
63819;BME280;49970;54.976;73.248;2022-07-10T11:59:01;100153.88;;;29.44;46.70
63819;BME280;49970;54.976;73.248;2022-07-10T12:01:29;100169.75;;;29.47;47.00
63819;BME280;49970;54.976;73.248;2022-07-10T12:04:05;100167.63;;;29.49;46.53
63819;BME280;49970;54.976;73.248;2022-07-10T12:06:38;100161.34;;;29.48;47.29
63819;BME280;49970;54.976;73.248;2022-07-10T12:09:09;100164.28;;;29.47;46.97
63819;BME280;49970;54.976;73.248;2022-07-10T12:11:41;100163.47;;;29.46;46.91
63819;BME280;49970;54.976;73.248;2022-07-10T12:14:19;100166.81;;;29.48;47.11
63819;BME280;49970;54.976;73.248;2022-07-10T12:16:51;100162.28;;;29.42;46.32
63819;BME280;49970;54.976;73.248;2022-07-10T12:19:21;100158.97;;;29.40;46.99
63819;BME280;49970;54.976;73.248;2022-07-10T12:21:48;100160.63;;;29.41;46.91
63819;BME280;49970;54.976;73.248;2022-07-10T12:24:16;100163.97;;;29.43;46.85
63819;BME280;49970;54.976;73.248;2022-07-10T12:26:44;100158.63;;;29.37;47.02
63819;BME280;49970;54.976;73.248;2022-07-10T12:29:26;100153.63;;;29.34;47.31
63819;BME280;49970;54.976;73.248;2022-07-10T12:31:55;100151.72;;;29.34;47.06
63819;BME280;49970;54.976;73.248;2022-07-10T12:34:34;100145.31;;;29.28;47.48
63819;BME280;49970;54.976;73.248;2022-07-10T12:37:08;100146.41;;;29.27;47.85
63819;BME280;49970;54.976;73.248;2022-07-10T12:39:46;100156.22;;;29.28;47.95
63819;BME280;49970;54.976;73.248;2022-07-10T12:42:22;100153.03;;;29.32;47.98
63819;BME280;49970;54.976;73.248;2022-07-10T12:44:50;100148.66;;;29.31;47.74
63819;BME280;49970;54.976;73.248;2022-07-10T12:47:18;100157.53;;;29.26;47.72
63819;BME280;49970;54.976;73.248;2022-07-10T12:49:50;100161.69;;;29.28;47.33
63819;BME280;49970;54.976;73.248;2022-07-10T12:52:27;100171.78;;;29.28;47.42
63819;BME280;49970;54.976;73.248;2022-07-10T12:55:12;100170.13;;;29.27;47.57
63819;BME280;49970;54.976;73.248;2022-07-10T12:57:59;100168.44;;;29.26;46.95
63819;BME280;49970;54.976;73.248;2022-07-10T13:00:30;100169.50;;;29.25;47.27
63819;BME280;49970;54.976;73.248;2022-07-10T13:03:05;100180.06;;;29.21;46.89
63819;BME280;49970;54.976;73.248;2022-07-10T13:05:38;100176.97;;;29.18;47.18
63819;BME280;49970;54.976;73.248;2022-07-10T13:08:16;100149.63;;;28.94;47.16
63819;BME280;49970;54.976;73.248;2022-07-10T13:10:53;100172.34;;;29.07;46.67
63819;BME280;49970;54.976;73.248;2022-07-10T13:13:20;100176.47;;;29.09;46.97
63819;BME280;49970;54.976;73.248;2022-07-10T13:15:47;100184.91;;;29.08;47.14
63819;BME280;49970;54.976;73.248;2022-07-10T13:20:54;100182.41;;;29.06;47.89
63819;BME280;49970;54.976;73.248;2022-07-10T13:23:31;100185.72;;;29.08;47.59
63819;BME280;49970;54.976;73.248;2022-07-10T13:25:58;100192.00;;;29.09;47.32
63819;BME280;49970;54.976;73.248;2022-07-10T13:28:27;100180.28;;;29.08;47.92
63819;BME280;49970;54.976;73.248;2022-07-10T13:31:03;100193.78;;;29.03;48.04
63819;BME280;49970;54.976;73.248;2022-07-10T13:33:29;100188.78;;;29.00;48.33
63819;BME280;49970;54.976;73.248;2022-07-10T13:36:01;100193.00;;;28.96;48.13
63819;BME280;49970;54.976;73.248;2022-07-10T13:38:34;100199.16;;;28.91;48.00
63819;BME280;49970;54.976;73.248;2022-07-10T13:41:00;100198.34;;;28.91;48.56
63819;BME280;49970;54.976;73.248;2022-07-10T13:43:26;100204.84;;;28.90;48.37
63819;BME280;49970;54.976;73.248;2022-07-10T13:45:59;100203.22;;;28.89;48.43
63819;BME280;49970;54.976;73.248;2022-07-10T13:48:26;100205.06;;;28.88;48.88
63819;BME280;49970;54.976;73.248;2022-07-10T13:50:54;100197.97;;;28.87;49.11